sensor_id;sensor_type;location;lat;lon;timestamp;P1;durP1;ratioP1;P2;durP2;ratioP2
39016;SDS011;24784;45.582;5.276;2022-11-14T01:54:40;10.13;;;4.20;;
39016;SDS011;24784;45.582;5.276;2022-11-14T02:12:52;10.60;;;4.55;;
39016;SDS011;24784;45.582;5.276;2022-11-14T02:21:03;9.15;;;3.70;;
39016;SDS011;24784;45.582;5.276;2022-11-14T02:34:20;8.15;;;4.03;;
39016;SDS011;24784;45.582;5.276;2022-11-14T02:40:20;10.10;;;4.78;;
39016;SDS011;24784;45.582;5.276;2022-11-14T03:17:09;7.13;;;3.67;;
39016;SDS011;24784;45.582;5.276;2022-11-14T03:46:01;7.15;;;4.20;;
39016;SDS011;24784;45.582;5.276;2022-11-14T06:34:59;6.13;;;3.60;;
39016;SDS011;24784;45.582;5.276;2022-11-14T06:42:53;5.75;;;3.20;;
39016;SDS011;24784;45.582;5.276;2022-11-14T06:45:20;6.80;;;4.00;;
39016;SDS011;24784;45.582;5.276;2022-11-14T06:47:46;5.97;;;3.55;;
39016;SDS011;24784;45.582;5.276;2022-11-14T06:50:12;7.03;;;4.00;;
39016;SDS011;24784;45.582;5.276;2022-11-14T06:52:38;7.45;;;4.45;;
39016;SDS011;24784;45.582;5.276;2022-11-14T06:55:04;7.88;;;4.38;;
39016;SDS011;24784;45.582;5.276;2022-11-14T06:57:30;10.20;;;5.00;;
39016;SDS011;24784;45.582;5.276;2022-11-14T06:59:56;8.93;;;5.18;;
39016;SDS011;24784;45.582;5.276;2022-11-14T07:02:24;15.23;;;5.05;;
39016;SDS011;24784;45.582;5.276;2022-11-14T07:04:50;17.90;;;4.15;;
39016;SDS011;24784;45.582;5.276;2022-11-14T07:07:15;6.13;;;3.55;;
39016;SDS011;24784;45.582;5.276;2022-11-14T07:09:41;11.73;;;3.85;;
39016;SDS011;24784;45.582;5.276;2022-11-14T07:12:08;10.60;;;3.50;;
39016;SDS011;24784;45.582;5.276;2022-11-14T07:14:34;10.38;;;4.00;;
39016;SDS011;24784;45.582;5.276;2022-11-14T07:17:00;8.60;;;3.53;;
39016;SDS011;24784;45.582;5.276;2022-11-14T07:19:25;10.98;;;3.85;;
39016;SDS011;24784;45.582;5.276;2022-11-14T07:21:51;8.82;;;3.90;;
39016;SDS011;24784;45.582;5.276;2022-11-14T07:24:17;6.55;;;3.97;;
39016;SDS011;24784;45.582;5.276;2022-11-14T07:26:44;10.48;;;3.90;;
39016;SDS011;24784;45.582;5.276;2022-11-14T07:29:10;7.55;;;3.67;;
39016;SDS011;24784;45.582;5.276;2022-11-14T07:31:36;5.38;;;3.80;;
39016;SDS011;24784;45.582;5.276;2022-11-14T07:34:02;7.45;;;4.75;;
39016;SDS011;24784;45.582;5.276;2022-11-14T07:36:30;8.57;;;4.25;;
39016;SDS011;24784;45.582;5.276;2022-11-14T07:38:55;4.88;;;3.38;;
39016;SDS011;24784;45.582;5.276;2022-11-14T07:41:21;10.18;;;3.63;;
39016;SDS011;24784;45.582;5.276;2022-11-14T07:43:47;6.65;;;4.00;;
39016;SDS011;24784;45.582;5.276;2022-11-14T07:46:14;12.15;;;3.72;;
39016;SDS011;24784;45.582;5.276;2022-11-14T07:48:40;7.65;;;4.07;;
39016;SDS011;24784;45.582;5.276;2022-11-14T07:51:09;7.78;;;4.05;;
39016;SDS011;24784;45.582;5.276;2022-11-14T07:53:42;9.63;;;4.90;;
39016;SDS011;24784;45.582;5.276;2022-11-14T07:56:08;7.07;;;4.45;;
39016;SDS011;24784;45.582;5.276;2022-11-14T07:58:35;6.47;;;3.72;;
39016;SDS011;24784;45.582;5.276;2022-11-14T08:01:04;7.00;;;4.03;;
39016;SDS011;24784;45.582;5.276;2022-11-14T08:03:31;8.82;;;3.97;;
39016;SDS011;24784;45.582;5.276;2022-11-14T08:06:01;7.88;;;3.83;;
39016;SDS011;24784;45.582;5.276;2022-11-14T08:08:29;14.05;;;4.70;;
39016;SDS011;24784;45.582;5.276;2022-11-14T08:10:56;9.52;;;4.18;;
39016;SDS011;24784;45.582;5.276;2022-11-14T08:13:23;9.25;;;5.55;;
39016;SDS011;24784;45.582;5.276;2022-11-14T08:15:49;6.28;;;4.72;;
39016;SDS011;24784;45.582;5.276;2022-11-14T08:18:15;12.70;;;5.28;;
39016;SDS011;24784;45.582;5.276;2022-11-14T08:20:41;8.82;;;5.47;;
39016;SDS011;24784;45.582;5.276;2022-11-14T08:23:08;8.50;;;5.82;;
39016;SDS011;24784;45.582;5.276;2022-11-14T08:25:34;6.03;;;4.40;;
39016;SDS011;24784;45.582;5.276;2022-11-14T08:28:00;9.30;;;4.88;;
39016;SDS011;24784;45.582;5.276;2022-11-14T08:30:26;8.93;;;3.83;;
39016;SDS011;24784;45.582;5.276;2022-11-14T08:32:53;10.75;;;4.50;;
39016;SDS011;24784;45.582;5.276;2022-11-14T08:35:18;12.65;;;5.28;;
39016;SDS011;24784;45.582;5.276;2022-11-14T08:37:46;4.80;;;4.03;;
39016;SDS011;24784;45.582;5.276;2022-11-14T08:40:12;7.93;;;4.57;;
39016;SDS011;24784;45.582;5.276;2022-11-14T08:42:38;6.18;;;4.40;;
39016;SDS011;24784;45.582;5.276;2022-11-14T08:45:04;8.35;;;4.40;;
39016;SDS011;24784;45.582;5.276;2022-11-14T08:47:30;12.68;;;5.68;;
39016;SDS011;24784;45.582;5.276;2022-11-14T08:49:58;9.75;;;3.85;;
39016;SDS011;24784;45.582;5.276;2022-11-14T08:52:24;5.68;;;3.85;;
39016;SDS011;24784;45.582;5.276;2022-11-14T08:54:50;6.93;;;4.20;;
39016;SDS011;24784;45.582;5.276;2022-11-14T08:57:16;6.55;;;4.10;;
39016;SDS011;24784;45.582;5.276;2022-11-14T08:59:42;6.47;;;4.05;;
39016;SDS011;24784;45.582;5.276;2022-11-14T09:02:11;6.13;;;3.75;;
39016;SDS011;24784;45.582;5.276;2022-11-14T09:04:40;4.60;;;3.50;;
39016;SDS011;24784;45.582;5.276;2022-11-14T09:07:06;7.30;;;3.85;;
39016;SDS011;24784;45.582;5.276;2022-11-14T09:09:32;7.07;;;4.18;;
39016;SDS011;24784;45.582;5.276;2022-11-14T09:11:58;8.70;;;4.40;;
39016;SDS011;24784;45.582;5.276;2022-11-14T09:14:24;11.45;;;4.45;;
39016;SDS011;24784;45.582;5.276;2022-11-14T09:16:49;7.05;;;4.15;;
39016;SDS011;24784;45.582;5.276;2022-11-14T09:19:18;6.70;;;3.80;;
39016;SDS011;24784;45.582;5.276;2022-11-14T09:21:43;9.73;;;4.20;;
39016;SDS011;24784;45.582;5.276;2022-11-14T09:24:09;9.48;;;4.10;;
39016;SDS011;24784;45.582;5.276;2022-11-14T09:26:35;8.10;;;4.05;;
39016;SDS011;24784;45.582;5.276;2022-11-14T09:29:00;8.85;;;4.00;;
39016;SDS011;24784;45.582;5.276;2022-11-14T09:31:26;7.40;;;3.97;;
39016;SDS011;24784;45.582;5.276;2022-11-14T09:33:53;5.05;;;3.85;;
39016;SDS011;24784;45.582;5.276;2022-11-14T09:36:19;6.47;;;4.63;;
39016;SDS011;24784;45.582;5.276;2022-11-14T09:38:45;9.75;;;4.15;;
39016;SDS011;24784;45.582;5.276;2022-11-14T09:46:43;8.27;;;3.30;;
39016;SDS011;24784;45.582;5.276;2022-11-14T09:49:40;6.22;;;4.05;;
39016;SDS011;24784;45.582;5.276;2022-11-14T09:54:45;5.35;;;3.47;;
39016;SDS011;24784;45.582;5.276;2022-11-14T09:57:20;6.10;;;3.88;;
39016;SDS011;24784;45.582;5.276;2022-11-14T09:59:46;8.32;;;4.00;;
39016;SDS011;24784;45.582;5.276;2022-11-14T10:02:23;7.18;;;4.10;;
39016;SDS011;24784;45.582;5.276;2022-11-14T10:16:11;5.50;;;3.70;;
39016;SDS011;24784;45.582;5.276;2022-11-14T10:18:52;7.60;;;3.58;;
39016;SDS011;24784;45.582;5.276;2022-11-14T10:21:36;6.85;;;3.60;;
39016;SDS011;24784;45.582;5.276;2022-11-14T10:24:14;7.45;;;3.55;;
39016;SDS011;24784;45.582;5.276;2022-11-14T10:27:11;8.20;;;3.65;;
39016;SDS011;24784;45.582;5.276;2022-11-14T10:32:36;9.95;;;3.75;;
39016;SDS011;24784;45.582;5.276;2022-11-14T10:35:12;6.63;;;3.20;;
39016;SDS011;24784;45.582;5.276;2022-11-14T10:40:46;6.47;;;3.90;;
39016;SDS011;24784;45.582;5.276;2022-11-14T10:43:29;7.00;;;3.88;;
39016;SDS011;24784;45.582;5.276;2022-11-14T10:46:04;6.85;;;3.60;;
39016;SDS011;24784;45.582;5.276;2022-11-14T10:48:39;4.55;;;3.40;;
39016;SDS011;24784;45.582;5.276;2022-11-14T10:53:57;5.45;;;3.15;;
39016;SDS011;24784;45.582;5.276;2022-11-14T10:56:28;5.82;;;3.17;;
39016;SDS011;24784;45.582;5.276;2022-11-14T10:58:54;8.15;;;3.00;;
39016;SDS011;24784;45.582;5.276;2022-11-14T11:04:10;5.70;;;3.37;;
39016;SDS011;24784;45.582;5.276;2022-11-14T11:06:38;7.13;;;2.70;;
39016;SDS011;24784;45.582;5.276;2022-11-14T11:09:10;5.03;;;3.20;;
39016;SDS011;24784;45.582;5.276;2022-11-14T11:12:02;4.10;;;3.35;;
39016;SDS011;24784;45.582;5.276;2022-11-14T11:14:29;8.30;;;2.75;;
39016;SDS011;24784;45.582;5.276;2022-11-14T11:19:49;4.60;;;2.70;;
39016;SDS011;24784;45.582;5.276;2022-11-14T11:24:54;4.93;;;2.90;;
39016;SDS011;24784;45.582;5.276;2022-11-14T11:27:22;4.05;;;3.25;;
39016;SDS011;24784;45.582;5.276;2022-11-14T11:30:05;7.05;;;2.80;;
39016;SDS011;24784;45.582;5.276;2022-11-14T11:32:39;5.32;;;3.22;;
39016;SDS011;24784;45.582;5.276;2022-11-14T11:35:08;3.65;;;2.88;;
39016;SDS011;24784;45.582;5.276;2022-11-14T11:37:53;8.35;;;2.70;;
39016;SDS011;24784;45.582;5.276;2022-11-14T11:40:22;6.25;;;3.45;;
39016;SDS011;24784;45.582;5.276;2022-11-14T11:45:25;8.30;;;3.50;;
39016;SDS011;24784;45.582;5.276;2022-11-14T11:48:09;3.85;;;2.60;;
39016;SDS011;24784;45.582;5.276;2022-11-14T11:50:38;3.85;;;2.65;;
39016;SDS011;24784;45.582;5.276;2022-11-14T11:53:26;5.63;;;2.80;;
39016;SDS011;24784;45.582;5.276;2022-11-14T11:55:55;8.35;;;3.50;;
39016;SDS011;24784;45.582;5.276;2022-11-14T11:58:28;6.30;;;5.40;;
39016;SDS011;24784;45.582;5.276;2022-11-14T12:00:59;7.25;;;3.58;;
39016;SDS011;24784;45.582;5.276;2022-11-14T12:03:25;11.88;;;5.57;;
39016;SDS011;24784;45.582;5.276;2022-11-14T12:11:26;4.18;;;2.90;;
39016;SDS011;24784;45.582;5.276;2022-11-14T12:16:44;6.38;;;2.92;;
39016;SDS011;24784;45.582;5.276;2022-11-14T12:27:59;5.43;;;3.47;;
39016;SDS011;24784;45.582;5.276;2022-11-14T12:30:36;5.60;;;3.38;;
39016;SDS011;24784;45.582;5.276;2022-11-14T12:33:08;5.90;;;3.83;;
39016;SDS011;24784;45.582;5.276;2022-11-14T12:35:54;13.77;;;7.07;;
39016;SDS011;24784;45.582;5.276;2022-11-14T12:38:23;10.38;;;5.28;;
39016;SDS011;24784;45.582;5.276;2022-11-14T12:40:58;8.60;;;4.82;;
39016;SDS011;24784;45.582;5.276;2022-11-14T12:48:21;9.20;;;4.05;;
39016;SDS011;24784;45.582;5.276;2022-11-14T12:50:58;10.95;;;5.93;;
39016;SDS011;24784;45.582;5.276;2022-11-14T13:04:19;8.82;;;3.50;;
39016;SDS011;24784;45.582;5.276;2022-11-14T13:09:40;5.85;;;3.70;;
39016;SDS011;24784;45.582;5.276;2022-11-14T13:12:35;9.80;;;3.30;;
39016;SDS011;24784;45.582;5.276;2022-11-14T13:18:29;6.45;;;4.10;;
39016;SDS011;24784;45.582;5.276;2022-11-14T13:21:24;8.48;;;3.67;;
39016;SDS011;24784;45.582;5.276;2022-11-14T13:24:10;6.55;;;3.25;;
39016;SDS011;24784;45.582;5.276;2022-11-14T13:26:52;9.80;;;3.37;;
39016;SDS011;24784;45.582;5.276;2022-11-14T13:29:52;4.72;;;2.90;;
39016;SDS011;24784;45.582;5.276;2022-11-14T13:32:12;6.22;;;3.15;;
39016;SDS011;24784;45.582;5.276;2022-11-14T13:35:15;6.35;;;3.17;;
39016;SDS011;24784;45.582;5.276;2022-11-14T13:46:00;6.22;;;3.35;;
39016;SDS011;24784;45.582;5.276;2022-11-14T13:51:19;8.57;;;3.60;;
39016;SDS011;24784;45.582;5.276;2022-11-14T13:53:48;6.50;;;3.63;;
39016;SDS011;24784;45.582;5.276;2022-11-14T13:58:57;6.68;;;3.78;;
39016;SDS011;24784;45.582;5.276;2022-11-14T14:32:27;7.03;;;4.15;;
39016;SDS011;24784;45.582;5.276;2022-11-14T14:34:53;9.68;;;4.15;;
39016;SDS011;24784;45.582;5.276;2022-11-14T14:37:26;7.30;;;3.97;;
39016;SDS011;24784;45.582;5.276;2022-11-14T14:42:23;6.82;;;3.95;;
39016;SDS011;24784;45.582;5.276;2022-11-14T14:44:53;6.85;;;4.15;;
39016;SDS011;24784;45.582;5.276;2022-11-14T14:49:52;8.95;;;4.63;;
39016;SDS011;24784;45.582;5.276;2022-11-14T14:52:19;10.43;;;4.32;;
39016;SDS011;24784;45.582;5.276;2022-11-14T14:54:52;9.82;;;4.70;;
39016;SDS011;24784;45.582;5.276;2022-11-14T14:59:44;9.70;;;4.40;;
39016;SDS011;24784;45.582;5.276;2022-11-14T15:02:14;8.38;;;5.18;;
39016;SDS011;24784;45.582;5.276;2022-11-14T15:04:41;9.75;;;4.97;;
39016;SDS011;24784;45.582;5.276;2022-11-14T15:07:21;10.73;;;5.45;;
39016;SDS011;24784;45.582;5.276;2022-11-14T15:09:56;10.30;;;5.78;;
39016;SDS011;24784;45.582;5.276;2022-11-14T15:12:24;10.48;;;5.30;;
39016;SDS011;24784;45.582;5.276;2022-11-14T15:14:53;9.38;;;5.00;;
39016;SDS011;24784;45.582;5.276;2022-11-14T15:17:20;11.15;;;5.20;;
39016;SDS011;24784;45.582;5.276;2022-11-14T15:19:48;5.85;;;4.20;;
39016;SDS011;24784;45.582;5.276;2022-11-14T15:24:42;10.05;;;4.63;;
39016;SDS011;24784;45.582;5.276;2022-11-14T15:27:13;7.20;;;4.80;;
39016;SDS011;24784;45.582;5.276;2022-11-14T15:29:49;7.63;;;4.70;;
39016;SDS011;24784;45.582;5.276;2022-11-14T15:32:24;9.73;;;4.43;;
39016;SDS011;24784;45.582;5.276;2022-11-14T15:40:38;11.15;;;4.90;;
39016;SDS011;24784;45.582;5.276;2022-11-14T15:54:34;11.27;;;4.40;;
39016;SDS011;24784;45.582;5.276;2022-11-14T15:57:11;10.13;;;4.28;;
39016;SDS011;24784;45.582;5.276;2022-11-14T15:59:38;8.95;;;4.85;;
39016;SDS011;24784;45.582;5.276;2022-11-14T16:02:11;7.55;;;4.30;;
39016;SDS011;24784;45.582;5.276;2022-11-14T16:04:40;9.55;;;4.85;;
39016;SDS011;24784;45.582;5.276;2022-11-14T16:07:16;6.78;;;4.40;;
39016;SDS011;24784;45.582;5.276;2022-11-14T16:09:42;7.82;;;4.70;;
39016;SDS011;24784;45.582;5.276;2022-11-14T16:12:08;9.65;;;5.03;;
39016;SDS011;24784;45.582;5.276;2022-11-14T16:14:34;8.52;;;4.60;;
39016;SDS011;24784;45.582;5.276;2022-11-14T16:17:00;6.88;;;4.82;;
39016;SDS011;24784;45.582;5.276;2022-11-14T16:19:26;8.73;;;4.72;;
39016;SDS011;24784;45.582;5.276;2022-11-14T16:21:52;5.97;;;4.60;;
39016;SDS011;24784;45.582;5.276;2022-11-14T16:24:21;9.88;;;4.50;;
39016;SDS011;24784;45.582;5.276;2022-11-14T16:26:48;8.38;;;4.25;;
39016;SDS011;24784;45.582;5.276;2022-11-14T16:29:14;5.28;;;4.25;;
39016;SDS011;24784;45.582;5.276;2022-11-14T16:31:40;10.23;;;4.95;;
39016;SDS011;24784;45.582;5.276;2022-11-14T16:34:08;6.70;;;3.97;;
39016;SDS011;24784;45.582;5.276;2022-11-14T16:36:39;9.13;;;4.00;;
39016;SDS011;24784;45.582;5.276;2022-11-14T16:39:05;7.15;;;4.25;;
39016;SDS011;24784;45.582;5.276;2022-11-14T16:41:35;6.25;;;4.20;;
39016;SDS011;24784;45.582;5.276;2022-11-14T16:44:01;8.38;;;4.30;;
39016;SDS011;24784;45.582;5.276;2022-11-14T16:46:26;16.83;;;5.70;;
39016;SDS011;24784;45.582;5.276;2022-11-14T16:48:53;7.05;;;4.47;;
39016;SDS011;24784;45.582;5.276;2022-11-14T16:51:19;11.07;;;4.72;;
39016;SDS011;24784;45.582;5.276;2022-11-14T16:53:45;16.50;;;4.75;;
39016;SDS011;24784;45.582;5.276;2022-11-14T16:56:10;6.03;;;4.90;;
39016;SDS011;24784;45.582;5.276;2022-11-14T16:58:37;8.73;;;4.60;;
39016;SDS011;24784;45.582;5.276;2022-11-14T17:01:05;7.35;;;4.47;;
39016;SDS011;24784;45.582;5.276;2022-11-14T17:03:31;12.20;;;4.85;;
39016;SDS011;24784;45.582;5.276;2022-11-14T17:05:57;8.15;;;4.72;;
39016;SDS011;24784;45.582;5.276;2022-11-14T17:08:23;11.02;;;4.72;;
39016;SDS011;24784;45.582;5.276;2022-11-14T17:10:49;7.75;;;4.93;;
39016;SDS011;24784;45.582;5.276;2022-11-14T17:13:15;11.57;;;5.10;;
39016;SDS011;24784;45.582;5.276;2022-11-14T17:15:43;7.32;;;4.50;;
39016;SDS011;24784;45.582;5.276;2022-11-14T17:18:09;8.93;;;4.45;;
39016;SDS011;24784;45.582;5.276;2022-11-14T17:20:38;6.22;;;4.22;;
39016;SDS011;24784;45.582;5.276;2022-11-14T17:23:04;7.35;;;4.78;;
39016;SDS011;24784;45.582;5.276;2022-11-14T17:25:29;7.93;;;4.72;;
39016;SDS011;24784;45.582;5.276;2022-11-14T17:27:55;6.28;;;4.55;;
39016;SDS011;24784;45.582;5.276;2022-11-14T17:30:21;9.98;;;5.45;;
39016;SDS011;24784;45.582;5.276;2022-11-14T17:32:47;9.70;;;5.00;;
39016;SDS011;24784;45.582;5.276;2022-11-14T17:35:13;8.57;;;5.20;;
39016;SDS011;24784;45.582;5.276;2022-11-14T17:37:39;8.38;;;4.95;;
39016;SDS011;24784;45.582;5.276;2022-11-14T17:40:05;9.73;;;4.65;;
39016;SDS011;24784;45.582;5.276;2022-11-14T17:42:32;6.88;;;4.38;;
39016;SDS011;24784;45.582;5.276;2022-11-14T17:44:57;8.27;;;5.30;;
39016;SDS011;24784;45.582;5.276;2022-11-14T17:47:25;12.93;;;5.32;;
39016;SDS011;24784;45.582;5.276;2022-11-14T17:49:51;11.15;;;4.53;;
39016;SDS011;24784;45.582;5.276;2022-11-14T17:52:17;8.30;;;4.72;;
39016;SDS011;24784;45.582;5.276;2022-11-14T17:54:43;11.40;;;5.90;;
39016;SDS011;24784;45.582;5.276;2022-11-14T17:57:08;8.52;;;5.43;;
39016;SDS011;24784;45.582;5.276;2022-11-14T17:59:34;9.85;;;5.80;;
39016;SDS011;24784;45.582;5.276;2022-11-14T18:02:00;9.68;;;5.35;;
39016;SDS011;24784;45.582;5.276;2022-11-14T18:04:26;12.70;;;6.68;;
39016;SDS011;24784;45.582;5.276;2022-11-14T18:06:52;11.80;;;5.97;;
39016;SDS011;24784;45.582;5.276;2022-11-14T18:09:18;6.75;;;5.57;;
39016;SDS011;24784;45.582;5.276;2022-11-14T18:11:44;6.72;;;5.32;;
39016;SDS011;24784;45.582;5.276;2022-11-14T18:14:10;7.60;;;5.63;;
39016;SDS011;24784;45.582;5.276;2022-11-14T18:16:38;11.05;;;4.97;;
39016;SDS011;24784;45.582;5.276;2022-11-14T18:19:04;6.05;;;4.60;;
39016;SDS011;24784;45.582;5.276;2022-11-14T18:21:30;9.65;;;5.63;;
39016;SDS011;24784;45.582;5.276;2022-11-14T18:23:57;9.13;;;5.88;;
39016;SDS011;24784;45.582;5.276;2022-11-14T18:26:25;8.50;;;5.78;;
39016;SDS011;24784;45.582;5.276;2022-11-14T18:28:58;18.30;;;13.13;;
39016;SDS011;24784;45.582;5.276;2022-11-14T18:31:28;14.35;;;9.82;;
39016;SDS011;24784;45.582;5.276;2022-11-14T18:33:54;10.75;;;6.18;;
39016;SDS011;24784;45.582;5.276;2022-11-14T18:36:21;10.20;;;5.97;;
39016;SDS011;24784;45.582;5.276;2022-11-14T18:38:47;8.77;;;6.00;;
39016;SDS011;24784;45.582;5.276;2022-11-14T18:41:13;10.32;;;7.03;;
39016;SDS011;24784;45.582;5.276;2022-11-14T18:43:45;10.43;;;6.20;;
39016;SDS011;24784;45.582;5.276;2022-11-14T18:48:37;9.57;;;6.35;;
39016;SDS011;24784;45.582;5.276;2022-11-14T18:51:05;8.73;;;5.55;;
39016;SDS011;24784;45.582;5.276;2022-11-14T18:53:32;10.10;;;6.65;;
39016;SDS011;24784;45.582;5.276;2022-11-14T18:56:03;8.90;;;5.70;;
39016;SDS011;24784;45.582;5.276;2022-11-14T18:58:29;10.40;;;5.68;;
39016;SDS011;24784;45.582;5.276;2022-11-14T19:00:55;8.80;;;5.88;;
39016;SDS011;24784;45.582;5.276;2022-11-14T19:03:21;8.68;;;6.55;;
39016;SDS011;24784;45.582;5.276;2022-11-14T19:05:47;13.30;;;6.32;;
39016;SDS011;24784;45.582;5.276;2022-11-14T19:08:16;11.32;;;6.72;;
39016;SDS011;24784;45.582;5.276;2022-11-14T19:10:42;15.13;;;6.45;;
39016;SDS011;24784;45.582;5.276;2022-11-14T19:13:08;11.55;;;7.07;;
39016;SDS011;24784;45.582;5.276;2022-11-14T19:15:33;10.75;;;7.30;;
39016;SDS011;24784;45.582;5.276;2022-11-14T19:17:59;12.20;;;7.47;;
39016;SDS011;24784;45.582;5.276;2022-11-14T19:20:25;12.18;;;7.18;;
39016;SDS011;24784;45.582;5.276;2022-11-14T19:22:51;10.18;;;7.32;;
39016;SDS011;24784;45.582;5.276;2022-11-14T19:25:16;13.88;;;7.88;;
39016;SDS011;24784;45.582;5.276;2022-11-14T19:27:42;11.95;;;7.63;;
39016;SDS011;24784;45.582;5.276;2022-11-14T19:30:14;12.20;;;7.60;;
39016;SDS011;24784;45.582;5.276;2022-11-14T19:32:40;10.38;;;7.40;;
39016;SDS011;24784;45.582;5.276;2022-11-14T19:35:06;14.52;;;7.20;;
39016;SDS011;24784;45.582;5.276;2022-11-14T19:37:33;12.88;;;7.85;;
39016;SDS011;24784;45.582;5.276;2022-11-14T19:39:59;11.70;;;6.95;;
39016;SDS011;24784;45.582;5.276;2022-11-14T19:42:25;12.38;;;6.95;;
39016;SDS011;24784;45.582;5.276;2022-11-14T19:44:50;10.45;;;7.30;;
39016;SDS011;24784;45.582;5.276;2022-11-14T19:47:16;11.05;;;7.68;;
39016;SDS011;24784;45.582;5.276;2022-11-14T19:49:42;12.05;;;7.50;;
39016;SDS011;24784;45.582;5.276;2022-11-14T19:52:08;10.45;;;7.18;;
39016;SDS011;24784;45.582;5.276;2022-11-14T19:54:33;9.77;;;7.03;;
39016;SDS011;24784;45.582;5.276;2022-11-14T19:57:00;13.80;;;7.38;;
39016;SDS011;24784;45.582;5.276;2022-11-14T19:59:25;11.05;;;7.60;;
39016;SDS011;24784;45.582;5.276;2022-11-14T20:01:52;13.50;;;7.75;;
39016;SDS011;24784;45.582;5.276;2022-11-14T20:04:19;12.88;;;7.75;;
39016;SDS011;24784;45.582;5.276;2022-11-14T20:06:45;11.18;;;7.13;;
39016;SDS011;24784;45.582;5.276;2022-11-14T20:09:11;15.77;;;8.50;;
39016;SDS011;24784;45.582;5.276;2022-11-14T20:11:36;10.02;;;7.43;;
39016;SDS011;24784;45.582;5.276;2022-11-14T20:14:02;10.63;;;7.75;;
39016;SDS011;24784;45.582;5.276;2022-11-14T20:16:30;9.90;;;7.38;;
39016;SDS011;24784;45.582;5.276;2022-11-14T20:18:57;14.57;;;8.45;;
39016;SDS011;24784;45.582;5.276;2022-11-14T20:21:25;15.07;;;8.13;;
39016;SDS011;24784;45.582;5.276;2022-11-14T20:23:53;12.52;;;8.10;;
39016;SDS011;24784;45.582;5.276;2022-11-14T20:26:19;13.43;;;8.75;;
39016;SDS011;24784;45.582;5.276;2022-11-14T20:28:45;10.98;;;7.93;;
39016;SDS011;24784;45.582;5.276;2022-11-14T20:31:15;15.15;;;8.65;;
39016;SDS011;24784;45.582;5.276;2022-11-14T20:33:44;15.38;;;8.60;;
39016;SDS011;24784;45.582;5.276;2022-11-14T20:36:11;15.00;;;7.85;;
39016;SDS011;24784;45.582;5.276;2022-11-14T20:38:39;13.93;;;8.35;;
39016;SDS011;24784;45.582;5.276;2022-11-14T20:41:05;10.88;;;8.23;;
39016;SDS011;24784;45.582;5.276;2022-11-14T20:43:31;12.35;;;8.68;;
39016;SDS011;24784;45.582;5.276;2022-11-14T20:48:25;17.42;;;11.82;;
39016;SDS011;24784;45.582;5.276;2022-11-14T20:50:52;19.02;;;10.18;;
39016;SDS011;24784;45.582;5.276;2022-11-14T20:53:24;16.70;;;9.95;;
39016;SDS011;24784;45.582;5.276;2022-11-14T20:55:51;13.40;;;9.68;;
39016;SDS011;24784;45.582;5.276;2022-11-14T20:58:18;14.10;;;8.77;;
39016;SDS011;24784;45.582;5.276;2022-11-14T21:00:44;13.75;;;9.05;;
39016;SDS011;24784;45.582;5.276;2022-11-14T21:03:10;15.38;;;9.68;;
39016;SDS011;24784;45.582;5.276;2022-11-14T21:05:38;11.93;;;8.52;;
39016;SDS011;24784;45.582;5.276;2022-11-14T21:08:04;16.80;;;9.85;;
39016;SDS011;24784;45.582;5.276;2022-11-14T21:10:34;14.30;;;8.88;;
